LFLYLFMT

Guest
Details From LFLY - Lyon Bron
To LFMT - Montpellier/Mediterranee
Flight Number -
Tags generated
Created
Modified
Stats Distance 136 nm / 252 km
Max Altitude 14,000 ft / 4,267 m
Waypoints 3
Social Downloads 0
Likes 0
Share VATSIM

Download

Looking for another format? Having issues loading an existing format? Contact us
Advertisement - Login to hide

Notes

Basic altitude profile: - Ascent Rate: 2500ft/min - Ascent Speed: 100kts - Cruise Altitude: 14000ft - Cruise Speed: 150kts - Descent Rate: 1500ft/min - Descent Speed: 100kts

Route

LFLY NELEN LFMT

ID Type Via Altitude Latitude Longitude Leg Dist Tot Dist Heading (true) Name
O LFLY APT - 0 ft / 0 m 45.72717˚ 4.94427˚ - 0 nm - Lyon Bron
NELEN FIX - 14,000 ft / 4,267 m 45.11861˚ 4.61167˚ 39 nm 39 nm 201° / 201° -
O LFMT APT - 0 ft / 0 m 43.57626˚ 3.96326˚ 96 nm 135 nm 197° / 197° Montpellier/Mediterranee

Altitude Profile

Advertisement - Login to hide

LFLY

Details ICAO LFLY (LYN)
Name Lyon Bron
Region France
Timezone Europe/Paris (UTC+2.0)
Stats Elevation 659 ft / 201 m (AMSL)
Location 45.727171° 4.944274°
Runways 1
Magnetic Variation 1.504° E

METAR

LFLY 241030Z AUTO VRB03KT CAVOK 23/14 Q1018 NOSIG

Decode

TAF

TAF LFLY 240500Z 2406/2506 VRB02KT CAVOK PROB30 TEMPO 2406/2407 3000 BR BECMG 2407/2409 18006KT TEMPO 2415/2419 FEW050CB PROB30 TEMPO 2415/2418 VRB15KT 4000 TSRA BKN050CB

Decode

Departure Runways

ID Width Length Bearing (true) Bearing (mag) Surface Threshold Offset Overrun Length
16 148 ft / 45 m 5,972 ft / 1,820 m 163.44° 161.94° Asphalt 984 ft / 300 m 0 ft / 0 m
34 148 ft / 45 m 5,972 ft / 1,820 m 343.44° 341.94° Asphalt 984 ft / 300 m 0 ft / 0 m

LFMT

Details ICAO LFMT (MPL)
Name Montpellier/Mediterranee
Region France
Timezone Europe/Paris (UTC+2.0)
Stats Elevation 16 ft / 5 m (AMSL)
Location 43.576262° 3.963261°
Runways 2
Magnetic Variation 1.298° E

METAR

LFMT 241030Z AUTO 16007KT 140V200 CAVOK 21/16 Q1018 NOSIG

Decode

TAF

TAF LFMT 240800Z 2409/2509 18010KT CAVOK TEMPO 2409/2411 BKN010 TEMPO 2416/2419 BKN008 TEMPO 2419/2507 VRB03KT 2000 BR BKN005

Decode

Destination Runways

ID Width Length Bearing (true) Bearing (mag) Surface Threshold Offset Overrun Length
13L 164 ft / 50 m 8,525 ft / 2,598 m 124.78° 123.48° Asphalt 0 ft / 0 m 0 ft / 0 m
13R 98 ft / 30 m 3,611 ft / 1,101 m 124.80° 123.50° Asphalt 328 ft / 100 m 0 ft / 0 m
31L 98 ft / 30 m 3,611 ft / 1,101 m 304.81° 303.51° Asphalt 0 ft / 0 m 0 ft / 0 m
31R 164 ft / 50 m 8,525 ft / 2,598 m 304.80° 303.50° Asphalt 0 ft / 0 m 0 ft / 0 m

Approach Navaids

Runway Type Ident Frequency Range Bearing (true) Bearing (mag) Slope Elevation
31R Localiser FG 108.55 MHz 27 nm / 50 km 304.75° 303.45° - 16 ft / 5 m (AMSL)
31R Glidescope FG 108.55 MHz 27 nm / 50 km 304.75° 303.45° 3.00° 16 ft / 5 m (AMSL)
31R DME FG 108.55 MHz 27 nm / 50 km - - - 16 ft / 5 m (AMSL)

Popular Alternatives